Time;durP1;ratioP1;P1;durP2;ratioP2;P2;SDS_P1;SDS_P2;PMS_P1;PMS_P2;Temp;Humidity;BMP_temperature;BMP_pressure;BME280_temperature;BME280_humidity;BME280_pressure;Samples;Min_cycle;Max_cycle;Signal;HPM_P1;HPM_P2
2023/07/04 00:01:05;;;;;;;5.72;1.55;;;;;;;14.57;74.13;101018.22;4986073;28;20027;-94
2023/07/04 00:03:31;;;;;;;4.90;1.60;;;;;;;14.54;74.92;101018.34;4981391;28;20030;-94
2023/07/04 00:05:57;;;;;;;5.82;1.67;;;;;;;14.50;74.69;101020.22;4986260;28;20191;-94
2023/07/04 00:08:25;;;;;;;6.13;1.70;;;;;;;14.47;75.26;101022.13;4986933;28;20470;-94
2023/07/04 00:10:51;;;;;;;5.68;1.60;;;;;;;14.45;75.06;101014.31;4986728;28;20113;-94
2023/07/04 00:13:19;;;;;;;5.28;1.48;;;;;;;14.46;75.75;101009.94;4991024;28;20022;-94
2023/07/04 00:15:46;;;;;;;7.47;1.60;;;;;;;14.47;75.60;101006.44;4988204;28;20023;-94
2023/07/04 00:18:12;;;;;;;5.18;1.60;;;;;;;14.51;75.72;101002.78;4987521;28;20026;-95
2023/07/04 00:20:37;;;;;;;4.32;1.48;;;;;;;14.53;75.24;101006.16;4981307;28;20407;-95
2023/07/04 00:23:04;;;;;;;6.28;1.83;;;;;;;14.56;74.94;100993.81;4979328;28;20518;-96
2023/07/04 00:25:34;;;;;;;5.47;1.58;;;;;;;14.60;75.02;100996.31;4959152;28;20030;-94
2023/07/04 00:28:04;;;;;;;5.90;1.45;;;;;;;14.57;74.90;100998.16;4987431;28;20026;-95
2023/07/04 00:30:31;;;;;;;5.53;1.73;;;;;;;14.55;74.84;100997.34;4980345;28;20471;-93
2023/07/04 00:32:56;;;;;;;6.82;1.27;;;;;;;14.54;75.54;100995.66;4966908;28;20102;-94
2023/07/04 00:35:22;;;;;;;4.40;1.35;;;;;;;14.52;75.60;101002.72;4982278;28;20054;-95
2023/07/04 00:37:47;;;;;;;4.35;1.40;;;;;;;14.51;75.62;100997.53;4984871;28;20150;-95
2023/07/04 00:40:13;;;;;;;3.42;1.40;;;;;;;14.52;76.47;100994.84;4985650;28;20081;-94
2023/07/04 00:42:41;;;;;;;3.63;1.27;;;;;;;14.51;76.85;100998.38;4984819;28;20033;-93
2023/07/04 00:45:21;;;;;;;3.53;1.40;;;;;;;14.53;76.30;101000.94;4965767;28;20449;-95
2023/07/04 00:48:00;;;;;;;7.57;1.60;;;;;;;14.51;75.43;100993.16;4985845;28;20023;-94
2023/07/04 00:50:39;;;;;;;4.38;1.55;;;;;;;14.52;75.87;100994.84;4985045;28;20117;-95
2023/07/04 00:53:08;;;;;;;4.03;1.52;;;;;;;14.48;76.49;100989.81;4985421;28;20029;-96
2023/07/04 00:55:37;;;;;;;4.75;1.40;;;;;;;14.44;76.58;100988.22;4986923;28;20053;-94
2023/07/04 00:58:04;;;;;;;4.40;1.40;;;;;;;14.39;76.35;100994.47;4979347;28;20034;-95
2023/07/04 01:00:30;;;;;;;5.57;1.50;;;;;;;14.35;76.51;101000.72;4984731;28;20022;-93
2023/07/04 01:03:10;;;;;;;5.15;1.50;;;;;;;14.33;76.02;100991.25;4982541;28;20019;-96
2023/07/04 01:05:47;;;;;;;5.05;1.55;;;;;;;14.28;77.05;100988.81;4987566;28;20034;-95
2023/07/04 01:08:20;;;;;;;4.53;1.67;;;;;;;14.18;76.78;100990.06;4983586;28;20027;-94
2023/07/04 01:10:47;;;;;;;4.10;1.55;;;;;;;14.12;77.16;100993.78;4983590;28;20082;-89
2023/07/04 01:13:36;;;;;;;6.03;1.65;;;;;;;14.09;76.42;100996.53;4994539;28;20038;-95
2023/07/04 01:16:09;;;;;;;3.33;1.50;;;;;;;14.03;77.15;100997.59;4964185;28;20042;-93
2023/07/04 01:18:37;;;;;;;5.05;1.65;;;;;;;13.99;77.51;100985.56;4981503;28;20121;-93
2023/07/04 01:21:05;;;;;;;4.65;1.70;;;;;;;13.98;77.44;100989.09;4984817;28;20030;-96
2023/07/04 01:23:39;;;;;;;5.22;1.63;;;;;;;13.97;77.08;100984.78;4983734;28;20038;-94
2023/07/04 01:26:25;;;;;;;8.30;2.10;;;;;;;14.00;76.40;100996.88;4980461;28;20077;-96
2023/07/04 01:28:53;;;;;;;7.85;1.67;;;;;;;14.01;77.13;100983.72;4979465;28;20027;-93
2023/07/04 01:31:30;;;;;;;8.52;2.50;;;;;;;14.04;77.04;100994.06;4982231;28;20037;-95
2023/07/04 01:33:58;;;;;;;9.30;2.20;;;;;;;14.06;77.19;100987.03;4993720;28;20030;-95
2023/07/04 01:36:29;;;;;;;9.10;2.10;;;;;;;14.09;76.99;100997.38;4994520;28;20022;-95
2023/07/04 01:38:55;;;;;;;10.05;2.35;;;;;;;14.13;76.81;100992.03;4996363;28;20014;-96
2023/07/04 01:41:24;;;;;;;11.32;2.10;;;;;;;14.15;76.78;100991.06;4991602;28;20057;-94
2023/07/04 01:44:15;;;;;;;6.28;2.05;;;;;;;14.17;77.25;100991.00;4990748;28;20054;-95
2023/07/04 01:46:40;;;;;;;7.20;2.03;;;;;;;14.18;76.98;100980.47;4998945;28;20054;-95
2023/07/04 01:49:06;;;;;;;7.57;2.30;;;;;;;14.20;77.13;100989.13;4998119;28;20112;-95
2023/07/04 01:51:42;;;;;;;7.55;1.98;;;;;;;14.21;77.15;100976.88;4992975;28;20462;-94
2023/07/04 01:54:10;;;;;;;12.13;2.30;;;;;;;14.23;76.96;100980.28;5006149;28;20469;-94
2023/07/04 01:56:40;;;;;;;8.18;2.38;;;;;;;14.26;77.16;100988.03;4996202;28;20018;-94
2023/07/04 01:59:07;;;;;;;8.73;2.45;;;;;;;14.26;77.20;100988.03;4999849;28;20026;-96
2023/07/04 02:01:55;;;;;;;10.20;2.20;;;;;;;14.30;76.36;100986.13;5003323;28;20037;-94
2023/07/04 02:04:30;;;;;;;10.43;2.38;;;;;;;14.31;76.99;100983.47;5004251;28;20327;-94
2023/07/04 02:06:56;;;;;;;12.40;2.72;;;;;;;14.33;77.16;100973.81;5011816;28;20077;-96
2023/07/04 02:09:23;;;;;;;9.70;2.40;;;;;;;14.36;77.15;100975.44;4998798;28;20018;-95
2023/07/04 02:11:56;;;;;;;10.52;2.60;;;;;;;14.38;77.21;100977.06;5000776;28;20054;-95
2023/07/04 02:14:27;;;;;;;10.63;2.53;;;;;;;14.41;77.35;100976.94;5002031;28;20031;-92
2023/07/04 02:16:55;;;;;;;9.23;2.70;;;;;;;14.44;77.11;100977.75;5003553;28;20039;-95
2023/07/04 02:19:22;;;;;;;8.85;2.40;;;;;;;14.47;77.01;100982.88;5000485;28;20488;-96
2023/07/04 02:21:47;;;;;;;8.60;2.30;;;;;;;14.48;75.29;100981.94;4997269;28;20093;-95
2023/07/04 02:24:13;;;;;;;13.60;2.80;;;;;;;14.49;73.91;100989.72;4994656;28;20053;-95
2023/07/04 02:26:39;;;;;;;10.82;3.08;;;;;;;14.51;74.79;100994.94;4997147;28;20018;-94
2023/07/04 02:29:13;;;;;;;9.73;2.30;;;;;;;14.53;76.30;100988.72;4995359;28;20109;-95
2023/07/04 02:31:39;;;;;;;12.38;2.58;;;;;;;14.59;76.97;101010.31;4987930;28;20021;-94
2023/07/04 02:34:04;;;;;;;11.55;2.78;;;;;;;14.59;77.65;101005.94;4993752;28;20071;-95
2023/07/04 02:36:29;;;;;;;7.93;2.80;;;;;;;14.60;73.34;101015.50;4979519;28;20060;-95
2023/07/04 02:38:55;;;;;;;7.78;2.13;;;;;;;14.48;74.54;100998.50;4963875;28;20046;-94
2023/07/04 02:41:20;;;;;;;6.60;2.10;;;;;;;14.41;75.63;100997.88;4980788;28;20117;-95
2023/07/04 02:43:45;;;;;;;10.68;2.20;;;;;;;14.36;75.62;101005.06;4987694;28;20042;-94
2023/07/04 02:46:11;;;;;;;5.72;1.90;;;;;;;14.31;77.32;100998.31;4976145;28;20406;-94
2023/07/04 02:48:36;;;;;;;7.53;2.10;;;;;;;14.23;77.63;101006.47;4986083;28;20046;-95
2023/07/04 02:51:01;;;;;;;5.85;2.78;;;;;;;14.16;78.99;101003.22;4990051;28;20058;-95
2023/07/04 02:53:27;;;;;;;6.57;2.40;;;;;;;14.12;79.81;100996.41;4993167;28;20085;-95
2023/07/04 02:55:55;;;;;;;10.77;2.80;;;;;;;14.11;80.51;100992.06;4979881;28;20027;-94
2023/07/04 02:58:21;;;;;;;7.80;2.60;;;;;;;14.08;81.42;100979.97;4980892;28;20030;-94
2023/07/04 03:00:48;;;;;;;7.13;2.75;;;;;;;14.06;81.67;100976.56;4980691;28;20441;-96
2023/07/04 03:03:13;;;;;;;9.70;2.85;;;;;;;14.06;81.78;100979.19;4981500;28;20026;-94
2023/07/04 03:05:39;;;;;;;9.43;2.88;;;;;;;14.05;82.49;100974.00;4991000;28;20042;-93
2023/07/04 03:08:05;;;;;;;9.10;2.78;;;;;;;14.05;83.30;100985.31;4981635;28;20030;-95
2023/07/04 03:10:30;;;;;;;8.48;2.70;;;;;;;14.04;83.22;100988.00;4979545;28;20023;-96
2023/07/04 03:12:56;;;;;;;10.13;2.72;;;;;;;14.03;83.39;100994.97;4987246;28;20109;-96
2023/07/04 03:15:22;;;;;;;8.65;2.70;;;;;;;14.06;83.74;100997.50;4986648;28;20066;-96
2023/07/04 03:17:47;;;;;;;9.23;2.90;;;;;;;14.07;84.29;100991.34;4986976;28;20034;-96
2023/07/04 03:20:13;;;;;;;7.43;2.60;;;;;;;14.09;84.57;100993.91;4992049;28;20049;-89
2023/07/04 03:22:40;;;;;;;8.00;2.88;;;;;;;14.06;84.31;100987.03;4998030;28;20147;-95
2023/07/04 03:25:06;;;;;;;10.48;2.78;;;;;;;14.09;83.38;100996.53;5005538;28;20014;-95
2023/07/04 03:27:35;;;;;;;8.90;2.90;;;;;;;14.08;83.15;100995.66;4985449;28;20037;-95
2023/07/04 03:30:00;;;;;;;7.97;2.60;;;;;;;14.09;83.46;100994.75;4983011;28;20038;-95
2023/07/04 03:32:29;;;;;;;9.45;2.40;;;;;;;14.09;83.19;100997.38;4989594;28;20396;-94
2023/07/04 03:34:55;;;;;;;9.15;2.42;;;;;;;14.09;83.13;100996.53;4982748;28;20023;-96
2023/07/04 03:37:21;;;;;;;9.00;2.60;;;;;;;14.09;82.56;100999.16;4986406;28;20074;-95
2023/07/04 03:39:46;;;;;;;7.28;2.80;;;;;;;14.09;82.24;101002.59;4982567;28;20041;-95
2023/07/04 03:42:11;;;;;;;8.05;2.38;;;;;;;14.07;82.20;101004.44;4976848;28;20609;-94
2023/07/04 03:44:37;;;;;;;7.82;2.53;;;;;;;14.05;81.48;101006.25;4978955;28;20039;-94
2023/07/04 03:47:02;;;;;;;11.48;2.83;;;;;;;14.02;80.81;101008.97;4986348;28;20022;-96
2023/07/04 03:49:27;;;;;;;7.25;2.10;;;;;;;14.01;80.46;101004.66;4990276;28;20449;-94
2023/07/04 03:51:53;;;;;;;5.35;2.28;;;;;;;13.98;79.88;101004.78;4989444;28;20018;-96
2023/07/04 03:54:18;;;;;;;7.95;2.40;;;;;;;13.97;79.67;101008.31;4978022;28;20034;-95
2023/07/04 03:56:43;;;;;;;8.23;2.17;;;;;;;13.95;79.65;101012.75;4978357;28;20027;-93
2023/07/04 03:59:09;;;;;;;6.32;2.00;;;;;;;13.93;79.44;101011.94;4989486;28;20065;-94
2023/07/04 04:01:34;;;;;;;7.40;2.30;;;;;;;13.91;79.56;101013.75;4980460;28;20054;-95
2023/07/04 04:04:02;;;;;;;8.18;2.20;;;;;;;13.90;79.70;101018.16;4976405;28;20038;-94
2023/07/04 04:06:28;;;;;;;5.85;1.83;;;;;;;13.91;80.14;101019.00;4976897;28;20109;-96
2023/07/04 04:08:53;;;;;;;6.18;1.83;;;;;;;13.90;80.25;101020.78;4977711;28;20426;-95
2023/07/04 04:11:18;;;;;;;8.35;2.22;;;;;;;13.89;80.89;101018.19;4994622;28;20093;-95
2023/07/04 04:13:44;;;;;;;6.40;2.20;;;;;;;13.90;81.45;101022.50;4983311;28;20049;-95
2023/07/04 04:16:09;;;;;;;6.38;2.30;;;;;;;13.91;82.03;101019.00;4989807;28;20512;-95
2023/07/04 04:18:35;;;;;;;9.00;2.30;;;;;;;13.90;82.08;101012.06;4989759;28;20031;-94
2023/07/04 04:21:00;;;;;;;7.93;2.40;;;;;;;13.88;82.88;101016.47;4984483;28;20022;-95
2023/07/04 04:23:25;;;;;;;7.85;2.38;;;;;;;13.88;82.99;101019.09;4982003;28;20105;-93
2023/07/04 04:25:51;;;;;;;10.02;2.30;;;;;;;13.87;83.02;101020.00;4994102;28;20026;-96
2023/07/04 04:28:16;;;;;;;9.48;2.30;;;;;;;13.84;83.47;101028.81;4994456;28;20023;-95
2023/07/04 04:30:45;;;;;;;8.82;2.70;;;;;;;13.88;83.82;101029.56;4990262;28;20014;-93
2023/07/04 04:33:10;;;;;;;7.35;2.28;;;;;;;13.89;84.39;101020.81;4999857;28;20537;-95
2023/07/04 04:35:39;;;;;;;7.60;2.38;;;;;;;13.92;84.19;101023.31;4997364;28;20031;-95
2023/07/04 04:38:05;;;;;;;10.73;2.45;;;;;;;13.93;84.07;101028.47;4990142;28;20078;-94
2023/07/04 04:40:32;;;;;;;8.25;2.50;;;;;;;13.98;84.51;101030.06;4991332;28;20109;-94
2023/07/04 04:42:58;;;;;;;9.45;2.60;;;;;;;14.02;84.21;101032.50;4984983;28;20025;-93
2023/07/04 04:45:23;;;;;;;11.52;2.75;;;;;;;14.07;84.25;101037.59;4987364;28;20030;-95
2023/07/04 04:47:52;;;;;;;9.75;2.78;;;;;;;14.09;84.46;101044.47;4984548;28;20023;-96
2023/07/04 04:50:22;;;;;;;11.25;2.58;;;;;;;14.12;84.91;101043.50;4988618;28;20062;-93
2023/07/04 04:52:48;;;;;;;12.15;2.63;;;;;;;14.11;84.23;101037.41;4975108;28;20034;-94
2023/07/04 04:55:14;;;;;;;14.40;3.15;;;;;;;14.11;84.36;101042.66;4989500;28;20030;-96
2023/07/04 04:57:40;;;;;;;11.20;2.88;;;;;;;14.12;84.11;101038.25;4989916;28;20558;-96
2023/07/04 05:00:06;;;;;;;11.98;2.58;;;;;;;14.14;84.66;101046.06;4984450;28;20065;-95
2023/07/04 05:02:32;;;;;;;12.85;2.80;;;;;;;14.14;84.60;101040.84;4982717;28;19998;-93
2023/07/04 05:04:59;;;;;;;6.95;2.35;;;;;;;14.16;84.88;101049.47;4981590;28;20041;-95
2023/07/04 05:07:24;;;;;;;11.80;2.47;;;;;;;14.15;84.71;101046.00;4967138;28;20525;-96
2023/07/04 05:09:54;;;;;;;9.98;2.70;;;;;;;14.18;84.68;101056.34;4991073;28;20033;-94
2023/07/04 05:12:19;;;;;;;11.52;3.00;;;;;;;14.21;84.16;101047.53;4974303;28;20018;-96
2023/07/04 05:14:45;;;;;;;12.13;2.55;;;;;;;14.21;84.53;101047.53;4989521;28;20378;-95
2023/07/04 05:17:10;;;;;;;8.13;2.60;;;;;;;14.20;84.29;101051.06;4981159;28;20041;-93
2023/07/04 05:19:35;;;;;;;10.07;3.10;;;;;;;14.21;84.33;101052.75;4988100;28;20450;-95
2023/07/04 05:22:01;;;;;;;9.32;3.05;;;;;;;14.23;84.40;101050.94;4977981;28;20027;-95
2023/07/04 05:24:26;;;;;;;12.25;2.80;;;;;;;14.22;84.54;101055.34;4986122;28;20433;-95
2023/07/04 05:26:51;;;;;;;9.32;2.58;;;;;;;14.20;84.48;101051.91;4985466;28;20436;-94
2023/07/04 05:29:17;;;;;;;8.48;2.97;;;;;;;14.21;84.61;101053.63;4986485;28;20027;-94
2023/07/04 05:31:42;;;;;;;10.15;2.90;;;;;;;14.22;84.37;101050.09;4985435;28;20029;-94
2023/07/04 05:34:07;;;;;;;12.60;2.90;;;;;;;14.25;83.99;101055.22;4985441;28;20090;-96
2023/07/04 05:36:33;;;;;;;8.98;2.55;;;;;;;14.29;84.64;101049.84;4990886;28;20113;-96
2023/07/04 05:39:01;;;;;;;9.30;2.40;;;;;;;14.33;84.12;101062.78;4983290;28;20041;-94
2023/07/04 05:41:31;;;;;;;12.77;3.35;;;;;;;14.39;84.43;101061.69;4985948;28;20065;-95
2023/07/04 05:43:59;;;;;;;9.85;2.78;;;;;;;14.42;84.50;101056.34;4992741;28;20128;-95
2023/07/04 05:46:24;;;;;;;10.52;3.00;;;;;;;14.44;84.04;101058.88;4986784;28;20026;-94
2023/07/04 05:48:50;;;;;;;12.38;3.30;;;;;;;14.46;83.39;101059.69;4976828;28;20165;-94
2023/07/04 05:51:17;;;;;;;13.18;3.05;;;;;;;14.49;83.68;101068.28;4981405;28;20091;-96
2023/07/04 05:53:47;;;;;;;11.20;3.17;;;;;;;14.52;84.14;101068.16;4952607;28;20026;-96
2023/07/04 05:56:15;;;;;;;10.23;3.08;;;;;;;14.59;84.32;101067.94;4977233;28;20039;-96
2023/07/04 05:58:43;;;;;;;9.27;3.17;;;;;;;14.64;84.62;101065.97;4988008;28;20041;-96
2023/07/04 06:01:14;;;;;;;13.85;3.03;;;;;;;14.68;83.32;101063.22;4982398;28;20148;-95
2023/07/04 06:03:40;;;;;;;11.75;2.80;;;;;;;14.73;83.99;101057.78;4984156;28;20116;-95
2023/07/04 06:06:07;;;;;;;11.45;2.88;;;;;;;14.76;83.66;101054.19;4966221;28;20083;-94
2023/07/04 06:08:54;;;;;;;8.77;2.70;;;;;;;14.77;83.58;101061.13;4982828;28;20054;-94
2023/07/04 06:11:29;;;;;;;10.68;2.83;;;;;;;14.79;82.28;101065.38;4974439;28;20145;-95
2023/07/04 06:13:58;;;;;;;11.10;2.88;;;;;;;14.82;82.50;101067.03;4998771;28;20041;-94
2023/07/04 06:16:23;;;;;;;12.85;2.70;;;;;;;14.88;81.64;101074.63;4994739;28;20045;-94
2023/07/04 06:18:49;;;;;;;8.35;2.60;;;;;;;14.93;80.91;101070.06;4997245;28;20034;-94
2023/07/04 06:21:23;;;;;;;11.07;2.65;;;;;;;14.97;81.85;101079.53;4991220;28;20030;-95
2023/07/04 06:26:27;;;;;;;11.95;2.50;;;;;;;15.08;79.57;101081.72;5030797;23;20045;-93
2023/07/04 06:28:56;;;;;;;9.32;2.80;;;;;;;15.12;78.85;101083.28;5027796;28;20036;-95
2023/07/04 06:31:42;;;;;;;11.20;2.58;;;;;;;15.18;78.92;101082.19;5034655;28;20089;-95
2023/07/04 06:34:16;;;;;;;11.10;2.55;;;;;;;15.24;79.62;101092.41;5031451;28;20078;-93
2023/07/04 06:37:02;;;;;;;9.90;2.65;;;;;;;15.29;78.93;101098.31;5034824;28;20030;-89
2023/07/04 06:39:27;;;;;;;10.75;2.50;;;;;;;15.33;79.05;101102.53;5005623;28;20534;-88
2023/07/04 06:42:04;;;;;;;9.57;2.22;;;;;;;15.41;79.58;101093.47;5069234;23;20041;-92
2023/07/04 06:44:29;;;;;;;10.85;2.42;;;;;;;15.45;77.29;101101.16;5044681;28;20030;-95
2023/07/04 06:46:54;;;;;;;10.43;2.60;;;;;;;15.51;77.71;101094.81;5018086;28;20084;-95
2023/07/04 06:49:29;;;;;;;12.57;2.42;;;;;;;15.60;78.58;101107.50;5010551;28;20036;-95
2023/07/04 06:51:54;;;;;;;14.48;2.70;;;;;;;15.68;75.67;101111.59;5010612;28;20373;-93
2023/07/04 06:54:19;;;;;;;8.43;2.63;;;;;;;15.68;75.00;101115.03;5013679;28;20034;-96
2023/07/04 06:56:45;;;;;;;8.38;2.35;;;;;;;15.71;75.80;101112.28;5018182;28;20029;-94
2023/07/04 06:59:10;;;;;;;9.00;2.70;;;;;;;15.77;75.00;101117.28;5015387;28;20022;-95
2023/07/04 07:01:38;;;;;;;12.45;2.50;;;;;;;15.80;74.50;101118.91;5021120;28;20025;-96
2023/07/04 07:04:13;;;;;;;8.13;2.13;;;;;;;15.81;74.05;101120.63;5015492;28;20045;-93
2023/07/04 07:06:53;;;;;;;9.68;2.38;;;;;;;15.88;74.35;101123.84;5009592;28;20040;-91
2023/07/04 07:09:21;;;;;;;7.03;2.22;;;;;;;15.98;73.83;101125.16;5013635;28;20060;-93
2023/07/04 07:11:54;;;;;;;7.65;2.33;;;;;;;16.08;73.19;101120.34;5010596;28;20068;-92
2023/07/04 07:14:19;;;;;;;10.15;2.40;;;;;;;16.17;70.78;101129.59;5004934;28;20108;-93
2023/07/04 07:16:45;;;;;;;8.13;2.63;;;;;;;16.19;70.61;101128.63;5006015;28;20464;-92
2023/07/04 07:24:48;;;;;;;10.05;2.55;;;;;;;16.35;70.62;101133.16;5239306;23;20050;-91
2023/07/04 07:27:26;;;;;;;8.20;2.53;;;;;;;16.36;69.54;101130.47;5158432;23;20057;-90
2023/07/04 07:30:35;;;;;;;10.30;3.15;;;;;;;16.39;69.38;101125.06;5138593;23;20098;-93
2023/07/04 07:33:40;;;;;;;9.32;2.90;;;;;;;16.45;69.01;101134.44;4933866;28;20073;-93
2023/07/04 07:48:05;;;;;;;8.45;2.50;;;;;;;16.73;65.59;101142.81;2614846;23;20046;-92
2023/07/04 07:50:50;;;;;;;10.73;2.80;;;;;;;16.75;66.82;101141.81;4978560;28;20021;-95
2023/07/04 07:53:57;;;;;;;6.18;2.17;;;;;;;16.76;65.51;101153.19;4959411;28;20027;-93
2023/07/04 07:59:17;;;;;;;8.52;2.40;;;;;;;16.76;63.02;101159.28;5434798;23;20054;-93
2023/07/04 08:01:43;;;;;;;6.47;2.08;;;;;;;16.79;64.09;101153.06;4991448;28;20125;-92
2023/07/04 08:04:08;;;;;;;6.57;2.40;;;;;;;16.86;63.04;101138.69;4986470;28;20081;-92
2023/07/04 08:06:42;;;;;;;6.32;1.90;;;;;;;16.94;62.87;101152.31;4980725;28;20031;-94
2023/07/04 08:09:21;;;;;;;8.38;2.30;;;;;;;16.99;63.76;101155.59;4973912;28;20038;-92
2023/07/04 08:12:08;;;;;;;7.95;2.15;;;;;;;17.03;63.57;101158.94;4991273;28;20026;-95
2023/07/04 08:17:09;;;;;;;5.60;2.30;;;;;;;17.01;61.21;101159.94;5175390;23;20539;-93
2023/07/04 08:19:34;;;;;;;7.20;2.60;;;;;;;17.03;62.72;101161.59;5047237;28;20020;-93
2023/07/04 08:21:59;;;;;;;11.48;2.55;;;;;;;17.05;60.13;101162.38;5037063;28;20036;-92
2023/07/04 08:24:24;;;;;;;7.57;2.47;;;;;;;17.09;58.73;101165.69;5049063;28;20035;-93
2023/07/04 08:26:55;;;;;;;8.35;2.30;;;;;;;17.16;60.85;101158.34;5042787;28;20024;-94
2023/07/04 08:29:20;;;;;;;8.27;2.47;;;;;;;17.21;60.62;101153.72;5043631;28;20056;-95
2023/07/04 08:31:46;;;;;;;8.35;2.30;;;;;;;17.23;59.96;101163.25;5051618;28;20018;-92
2023/07/04 08:34:11;;;;;;;8.80;2.17;;;;;;;17.19;59.94;101169.56;5047041;28;20037;-93
2023/07/04 08:36:47;;;;;;;;;;;;;;;;;;;;;
2023/07/04 08:39:16;;;;;;;7.72;2.30;;;;;;;17.15;59.36;101162.78;4991608;28;20086;-92
2023/07/04 08:42:04;;;;;;;12.77;2.50;;;;;;;17.19;60.31;101158.22;4984968;28;20046;-93
2023/07/04 08:50:06;;;;;;;5.93;1.80;;;;;;;17.36;56.54;101147.72;5186411;23;20274;-94
2023/07/04 08:55:45;;;;;;;6.18;1.60;;;;;;;17.62;54.83;101166.59;5257902;23;20116;-91
2023/07/04 08:58:21;;;;;;;10.18;2.30;;;;;;;17.73;55.26;101156.41;5028302;28;21594;-92
2023/07/04 09:00:56;;;;;;;11.23;1.88;;;;;;;17.90;53.89;101162.56;5053294;28;20020;-90
2023/07/04 09:03:37;;;;;;;6.20;1.80;;;;;;;18.08;55.32;101165.22;5036933;28;20465;-91
2023/07/04 09:06:23;;;;;;;9.80;1.83;;;;;;;18.17;56.07;101156.81;5031738;28;20083;-95
2023/07/04 09:08:57;;;;;;;6.10;1.58;;;;;;;18.24;53.46;101166.09;5034245;28;20145;-94
2023/07/04 09:11:23;;;;;;;7.05;1.95;;;;;;;18.28;52.07;101166.78;5013081;28;20439;-94
2023/07/04 09:13:55;;;;;;;8.73;1.58;;;;;;;18.34;51.52;101172.56;5032918;28;20049;-95
2023/07/04 09:16:32;;;;;;;5.50;1.55;;;;;;;18.43;52.68;101176.50;5027332;28;20036;-95
2023/07/04 09:21:33;;;;;;;5.32;1.40;;;;;;;18.47;51.13;101188.59;5030448;23;20050;-92
2023/07/04 09:42:32;;;;;;;6.88;1.70;;;;;;;18.61;50.27;101198.41;5365600;23;20057;-91
2023/07/04 09:56:26;;;;;;;5.40;1.70;;;;;;;18.66;49.08;101198.97;5312843;23;20062;-93
2023/07/04 09:59:12;;;;;;;5.72;1.60;;;;;;;18.70;51.19;101189.13;4985508;28;20034;-92
2023/07/04 10:01:39;;;;;;;6.95;1.67;;;;;;;18.71;50.28;101190.81;4986244;28;20034;-94
2023/07/04 10:04:09;;;;;;;8.27;1.92;;;;;;;18.71;51.08;101193.44;4984508;28;20351;-95
2023/07/04 10:06:36;;;;;;;5.07;1.67;;;;;;;18.69;49.49;101202.38;4986687;28;20438;-94
2023/07/04 10:09:11;;;;;;;6.00;1.90;;;;;;;18.72;49.71;101202.22;4973831;28;20083;-96
2023/07/04 10:11:37;;;;;;;4.32;2.08;;;;;;;18.75;49.40;101192.34;4973789;28;20019;-95
2023/07/04 10:14:08;;;;;;;7.25;2.22;;;;;;;18.73;48.87;101206.56;4975810;28;20029;-94
2023/07/04 10:16:34;;;;;;;5.47;1.95;;;;;;;18.73;48.91;101206.56;4970374;28;20050;-96
2023/07/04 10:19:08;;;;;;;5.88;2.08;;;;;;;18.79;51.11;101203.56;4981868;28;20023;-95
2023/07/04 10:21:42;;;;;;;8.25;2.13;;;;;;;18.92;50.82;101204.63;4980417;28;20024;-95
2023/07/04 10:27:13;;;;;;;6.95;2.22;;;;;;;19.05;50.72;101188.13;5025593;23;20051;-93
2023/07/04 10:29:59;;;;;;;5.93;2.17;;;;;;;19.01;49.60;101197.16;4994790;28;20049;-95
2023/07/04 10:47:53;;;;;;;6.05;1.70;;;;;;;19.31;47.24;101191.06;5020398;28;20974;-95
2023/07/04 10:51:09;;;;;;;;;;;;;;;;;;;;;
2023/07/04 10:53:35;;;;;;;3.58;1.60;;;;;;;19.49;48.64;101182.09;5232557;23;20154;-94
2023/07/04 10:56:24;;;;;;;6.10;1.70;;;;;;;19.60;49.39;101189.41;5020415;28;20063;-92
2023/07/04 10:59:05;;;;;;;5.32;1.50;;;;;;;19.61;49.11;101185.81;5018064;28;20039;-89
2023/07/04 11:12:01;;;;;;;3.97;1.60;;;;;;;19.66;47.22;101199.59;5262356;23;20092;-94
2023/07/04 11:15:10;;;;;;;5.10;1.50;;;;;;;19.76;48.99;101199.91;5189756;23;20102;-92
2023/07/04 11:17:38;;;;;;;6.03;1.70;;;;;;;19.86;45.33;101205.50;4962133;28;20070;-95
2023/07/04 11:20:17;;;;;;;5.95;1.48;;;;;;;19.93;45.82;101196.28;5296619;23;20100;-93
2023/07/04 11:23:11;;;;;;;4.60;1.50;;;;;;;19.96;47.56;101201.41;5157225;23;21061;-96
2023/07/04 11:26:08;;;;;;;3.92;1.40;;;;;;;19.99;47.69;101197.72;4971290;28;20042;-93
2023/07/04 11:48:48;;;;;;;6.38;1.40;;;;;;;20.21;47.44;101201.69;5460101;23;20058;-95
2023/07/04 11:53:55;;;;;;;5.82;1.50;;;;;;;20.30;46.41;101199.34;5297412;23;20054;-93
2023/07/04 11:56:35;;;;;;;6.22;1.70;;;;;;;20.34;46.63;101200.00;5022938;28;20053;-93
2023/07/04 12:14:14;;;;;;;4.50;1.55;;;;;;;20.81;43.79;101182.16;5019014;28;20063;-93
2023/07/04 12:16:47;;;;;;;5.53;1.60;;;;;;;20.85;44.30;101188.09;5016022;28;20112;-95
2023/07/04 12:19:42;;;;;;;4.50;1.48;;;;;;;20.88;45.84;101187.91;5014025;28;20010;-94
2023/07/04 12:22:17;;;;;;;5.00;1.50;;;;;;;20.81;43.81;101181.31;4943527;29;20063;-95
2023/07/04 12:24:44;;;;;;;4.90;1.52;;;;;;;20.79;45.47;101183.22;5025547;28;20441;-91
2023/07/04 12:27:10;;;;;;;7.78;1.85;;;;;;;20.80;43.70;101179.63;5014979;28;20469;-95
2023/07/04 12:29:43;;;;;;;5.10;1.80;;;;;;;20.82;44.87;101178.56;5017874;28;20061;-94
2023/07/04 12:32:48;;;;;;;;;;;;;;;;;;;;;
2023/07/04 12:35:18;;;;;;;4.93;1.60;;;;;;;20.89;43.77;101182.53;5005967;28;20105;-94
2023/07/04 12:37:52;;;;;;;6.47;1.60;;;;;;;21.00;43.34;101171.25;5009347;28;20104;-94
2023/07/04 12:40:28;;;;;;;7.50;1.77;;;;;;;21.10;44.17;101176.78;5007498;28;20040;-94
2023/07/04 12:42:59;;;;;;;8.45;1.73;;;;;;;21.06;44.06;101175.28;5018061;28;20038;-96
2023/07/04 12:45:31;;;;;;;7.78;1.80;;;;;;;20.98;44.80;101183.72;5016928;28;20446;-94
2023/07/04 12:48:02;;;;;;;5.60;1.80;;;;;;;20.94;44.31;101171.66;5011269;28;20048;-93
2023/07/04 12:50:30;;;;;;;7.18;1.90;;;;;;;20.91;43.29;101171.84;5006744;28;20382;-95
2023/07/04 12:52:56;;;;;;;6.72;2.17;;;;;;;20.92;43.60;101174.38;5007698;28;20024;-95
2023/07/04 12:55:22;;;;;;;10.27;2.15;;;;;;;21.01;45.35;101167.63;5130461;23;20069;-93
2023/07/04 12:58:33;;;;;;;;;;;;;;;;;;;;;
2023/07/04 13:01:02;;;;;;;;;;;;;;;21.14;45.43;101173.00;5033368;23;20141;-94
2023/07/04 13:03:29;;;;;;;4.65;1.80;;;;;;;21.08;44.14;101182.19;5006180;28;19980;-93
2023/07/04 13:05:54;;;;;;;5.35;1.60;;;;;;;21.10;44.23;101168.00;5009337;28;20026;-95
2023/07/04 13:08:23;;;;;;;4.80;1.83;;;;;;;21.11;42.69;101175.00;5017800;28;20449;-93
2023/07/04 13:10:51;;;;;;;5.47;1.92;;;;;;;21.05;42.65;101166.50;5018249;28;20065;-95
2023/07/04 13:13:37;;;;;;;6.18;2.00;;;;;;;21.00;43.74;101162.47;5020472;28;20018;-93
2023/07/04 13:16:29;;;;;;;6.38;1.95;;;;;;;21.02;43.95;101164.03;5018022;28;20037;-92
2023/07/04 13:19:14;;;;;;;6.55;1.77;;;;;;;21.06;45.20;101165.56;5002251;28;20080;-92
2023/07/04 13:21:44;;;;;;;5.47;1.92;;;;;;;21.02;44.55;101160.56;5019270;28;20029;-93
2023/07/04 13:24:30;;;;;;;4.15;1.80;;;;;;;20.93;43.26;101159.38;5018808;28;20040;-93
2023/07/04 13:26:55;;;;;;;7.45;1.98;;;;;;;20.85;44.27;101173.09;5019563;28;20038;-93
2023/07/04 13:29:25;;;;;;;6.43;1.95;;;;;;;20.72;44.78;101166.84;5021117;28;20024;-93
2023/07/04 13:32:16;;;;;;;9.85;2.15;;;;;;;20.64;45.08;101162.06;5238053;23;20134;-90
2023/07/04 13:53:31;;;;;;;6.60;2.33;;;;;;;20.89;45.09;101152.56;5221325;23;20058;-94
2023/07/04 13:56:10;;;;;;;;;;;;;;;;;;;;;
2023/07/04 13:58:48;;;;;;;;;;;;;;;;;;;;;
2023/07/04 14:03:47;;;;;;;6.28;2.90;;;;;;;20.77;45.62;101156.84;4983775;28;20058;-94
2023/07/04 14:06:42;;;;;;;6.57;2.88;;;;;;;20.71;45.98;101160.69;4997870;28;20070;-94
2023/07/04 14:14:44;;;;;;;6.25;2.72;;;;;;;20.49;46.55;101163.03;5389804;23;20045;-92
2023/07/04 14:50:36;;;;;;;5.65;2.75;;;;;;;20.91;47.09;101137.47;4310883;23;20042;-96
2023/07/04 14:53:11;;;;;;;9.90;3.40;;;;;;;21.01;48.31;101125.31;4975524;28;20486;-95
2023/07/04 14:55:37;;;;;;;9.90;3.25;;;;;;;21.16;46.82;101125.28;4965424;28;20038;-92
2023/07/04 14:59:09;;;;;;;9.88;3.20;;;;;;;21.24;46.53;101125.59;5080132;23;20062;-96
2023/07/04 15:03:40;;;;;;;7.60;3.17;;;;;;;21.38;47.07;101104.34;5910654;23;20024;-94
2023/07/04 15:06:36;;;;;;;;;;;;;;;;;;;;;